Christmas, Florida
Current Conditions -  °F | °C
As of 7:12 AM on Monday 26 Jan 2015 (Local Time) from KTTS Reporting Station
Light Rain Light Rain  
Wind Chill: 57°   Ceiling: 5500
Heat Index: 57°   Visibility: 10mi
Dew Point: 54°   Wind: 9mph
Humidity: 88%   Direction: 250°WSW
Pressure: 29.84"   Gusts: NA
Location:  28.54°N, 81°W
Report Text: KTTS 261212Z AUTO 25008KT 10SM -RA FEW012 SCT025 SCT034 OVC055 14/12 A2984 RMK AO2 RAB1212 CIG 014 RWY33
Loading
Personal Weather Stations






























Interactive Weather Map New forecast layout! Learn more

10-Day Weather Forecast

Advertisements
Track Severe Weather on mobile